Time;durP1;ratioP1;P1;durP2;ratioP2;P2;SDS_P1;SDS_P2;PMS_P1;PMS_P2;Temp;Humidity;BMP_temperature;BMP_pressure;BME280_temperature;BME280_humidity;BME280_pressure;Samples;Min_cycle;Max_cycle;Signal;HPM_P1;HPM_P2
2022/09/23 00:00:41;;;;;;;1.95;0.60;;;;;;;;;;5090859;28;20036;-73
2022/09/23 00:03:45;;;;;;;0.90;0.57;;;;;;;;;;5078615;28;20396;-72
2022/09/23 00:06:50;;;;;;;3.30;0.68;;;;;;;;;;5078476;28;20048;-72
2022/09/23 00:09:55;;;;;;;1.00;0.80;;;;;;;;;;5090796;28;20040;-73
2022/09/23 00:12:59;;;;;;;3.35;1.05;;;;;;;;;;5090162;28;20036;-73
2022/09/23 00:16:04;;;;;;;2.58;0.70;;;;;;;;;;5090911;28;20032;-74
2022/09/23 00:19:09;;;;;;;0.70;0.60;;;;;;;;;;5090671;28;20381;-73
2022/09/23 00:22:13;;;;;;;2.25;0.70;;;;;;;;;;5078256;28;20044;-74
2022/09/23 00:25:18;;;;;;;2.50;0.80;;;;;;;;;;5090280;28;20393;-73
2022/09/23 00:28:23;;;;;;;0.93;0.57;;;;;;;;;;5090372;28;20048;-72
2022/09/23 00:31:27;;;;;;;1.88;0.57;;;;;;;;;;5090789;28;20036;-72
2022/09/23 00:34:31;;;;;;;1.02;0.80;;;;;;;;;;5090717;28;20036;-72
2022/09/23 00:37:36;;;;;;;1.05;0.70;;;;;;;;;;5090745;28;20036;-72
2022/09/23 00:40:48;;;;;;;3.55;0.63;;;;;;;;;;5090921;28;20171;-72
2022/09/23 00:43:54;;;;;;;1.75;0.70;;;;;;;;;;5090730;28;20036;-72
2022/09/23 00:46:59;;;;;;;1.05;0.60;;;;;;;;;;5091488;28;20044;-71
2022/09/23 00:50:23;;;;;;;1.23;0.52;;;;;;;;;;5090556;28;20037;-71
2022/09/23 00:53:28;;;;;;;2.08;0.68;;;;;;;;;;5089874;28;20044;-74
2022/09/23 00:56:32;;;;;;;1.40;0.65;;;;;;;;;;5089932;28;20032;-73
2022/09/23 00:59:37;;;;;;;1.45;0.60;;;;;;;;;;5090899;28;20040;-72
2022/09/23 01:02:42;;;;;;;0.73;0.52;;;;;;;;;;5090766;28;20032;-73
2022/09/23 01:05:46;;;;;;;1.27;0.60;;;;;;;;;;5090727;28;20484;-74
2022/09/23 01:08:51;;;;;;;2.17;0.60;;;;;;;;;;5090526;28;20036;-72
2022/09/23 01:12:04;;;;;;;5.53;0.98;;;;;;;;;;5093988;28;20044;-72
2022/09/23 01:15:16;;;;;;;1.65;0.60;;;;;;;;;;5094323;28;20365;-72
2022/09/23 01:18:25;;;;;;;1.83;0.70;;;;;;;;;;5094270;28;20036;-71
2022/09/23 01:21:35;;;;;;;3.45;0.60;;;;;;;;;;5093604;28;20040;-72
2022/09/23 01:24:47;;;;;;;0.80;0.60;;;;;;;;;;5093980;28;20032;-72
2022/09/23 01:28:17;;;;;;;1.63;0.60;;;;;;;;;;5093405;28;20044;-72
2022/09/23 01:31:27;;;;;;;2.83;0.43;;;;;;;;;;5094148;28;20036;-70
2022/09/23 01:34:44;;;;;;;2.55;0.70;;;;;;;;;;5093607;28;20484;-71
2022/09/23 01:38:04;;;;;;;1.98;0.50;;;;;;;;;;5093205;28;20373;-71
2022/09/23 01:41:15;;;;;;;1.35;0.50;;;;;;;;;;5093376;28;20039;-73
2022/09/23 01:44:19;;;;;;;2.83;0.70;;;;;;;;;;5093251;28;20373;-70
2022/09/23 01:47:35;;;;;;;2.80;0.77;;;;;;;;;;5093862;28;20044;-72
2022/09/23 01:50:56;;;;;;;0.98;0.60;;;;;;;;;;5093554;28;20032;-72
2022/09/23 01:54:11;;;;;;;1.55;0.70;;;;;;;;;;5093350;28;20032;-72
2022/09/23 01:57:19;;;;;;;2.03;0.60;;;;;;;;;;5092974;28;20036;-72
2022/09/23 02:00:24;;;;;;;2.05;0.50;;;;;;;;;;5092438;28;20028;-71
2022/09/23 02:03:32;;;;;;;1.35;0.70;;;;;;;;;;5093050;28;20040;-71
2022/09/23 02:06:42;;;;;;;1.48;0.60;;;;;;;;;;5092178;28;20044;-71
2022/09/23 02:09:52;;;;;;;1.67;0.60;;;;;;;;;;5092230;28;20047;-71
2022/09/23 02:12:59;;;;;;;3.45;0.98;;;;;;;;;;5092690;28;20040;-72
2022/09/23 02:16:07;;;;;;;1.42;0.60;;;;;;;;;;5092768;28;20040;-71
2022/09/23 02:19:20;;;;;;;2.13;0.70;;;;;;;;;;5091998;28;20036;-72
2022/09/23 02:23:05;;;;;;;2.08;0.70;;;;;;;;;;5092346;28;20381;-71
2022/09/23 02:26:24;;;;;;;2.25;0.65;;;;;;;;;;5078818;28;20036;-71
2022/09/23 02:29:33;;;;;;;1.17;0.80;;;;;;;;;;5078844;28;20433;-73
2022/09/23 02:32:57;;;;;;;2.80;0.80;;;;;;;;;;5091745;28;20032;-72
2022/09/23 02:36:14;;;;;;;1.95;0.68;;;;;;;;;;5092351;28;20043;-72
2022/09/23 02:39:20;;;;;;;1.85;0.80;;;;;;;;;;5092432;28;20035;-72
2022/09/23 02:42:44;;;;;;;0.90;0.60;;;;;;;;;;5092379;28;20035;-71
2022/09/23 02:45:48;;;;;;;1.98;0.63;;;;;;;;;;5092442;28;20483;-72
2022/09/23 02:48:56;;;;;;;1.50;0.68;;;;;;;;;;5091952;28;20044;-72
2022/09/23 02:52:04;;;;;;;2.05;0.65;;;;;;;;;;5091076;28;20028;-71
2022/09/23 02:55:09;;;;;;;3.08;0.60;;;;;;;;;;5091021;28;20032;-71
2022/09/23 02:58:14;;;;;;;3.85;0.60;;;;;;;;;;5091273;28;20036;-72
2022/09/23 03:01:31;;;;;;;3.20;0.80;;;;;;;;;;5091173;28;20480;-72
2022/09/23 03:04:35;;;;;;;1.17;0.80;;;;;;;;;;5091895;28;20043;-71
2022/09/23 03:07:58;;;;;;;2.78;0.80;;;;;;;;;;5091681;28;20048;-72
2022/09/23 03:11:07;;;;;;;0.80;0.60;;;;;;;;;;5091496;28;20131;-71
2022/09/23 03:14:17;;;;;;;1.92;0.70;;;;;;;;;;5091668;28;20036;-72
2022/09/23 03:17:26;;;;;;;1.13;0.60;;;;;;;;;;5091505;28;20044;-71
2022/09/23 03:20:37;;;;;;;1.45;0.77;;;;;;;;;;5091478;28;20036;-72
2022/09/23 03:23:43;;;;;;;1.83;0.50;;;;;;;;;;5091537;28;20036;-72
2022/09/23 03:26:48;;;;;;;1.23;0.68;;;;;;;;;;5090144;28;20036;-72
2022/09/23 03:29:53;;;;;;;0.75;0.50;;;;;;;;;;5091695;28;20047;-71
2022/09/23 03:32:59;;;;;;;2.38;0.75;;;;;;;;;;5091279;28;20373;-71
2022/09/23 03:39:32;;;;;;;1.85;0.60;;;;;;;;;;5091518;28;20044;-72
2022/09/23 03:42:37;;;;;;;0.70;0.50;;;;;;;;;;5090253;28;20397;-73
2022/09/23 03:45:41;;;;;;;2.17;0.73;;;;;;;;;;5091471;28;20035;-73
2022/09/23 03:48:45;;;;;;;4.78;0.70;;;;;;;;;;5090843;28;20044;-72
2022/09/23 03:51:49;;;;;;;1.55;0.70;;;;;;;;;;5090982;28;20032;-72
2022/09/23 03:54:54;;;;;;;1.10;0.50;;;;;;;;;;5091051;28;20040;-72
2022/09/23 03:57:59;;;;;;;3.60;0.60;;;;;;;;;;5090323;28;20032;-73
2022/09/23 04:01:03;;;;;;;2.75;0.80;;;;;;;;;;5090188;28;20032;-73
2022/09/23 04:04:08;;;;;;;5.18;1.00;;;;;;;;;;5090397;28;20445;-72
2022/09/23 04:07:12;;;;;;;2.63;0.70;;;;;;;;;;5090937;28;20036;-72
2022/09/23 04:10:17;;;;;;;1.23;0.70;;;;;;;;;;5091072;28;20032;-72
2022/09/23 04:13:21;;;;;;;0.82;0.75;;;;;;;;;;5091184;28;20032;-72
2022/09/23 04:16:26;;;;;;;3.53;1.15;;;;;;;;;;5091194;28;20040;-72
2022/09/23 04:19:30;;;;;;;1.48;0.70;;;;;;;;;;5090717;28;20040;-72
2022/09/23 04:22:37;;;;;;;1.13;0.57;;;;;;;;;;5090961;28;20024;-72
2022/09/23 04:25:46;;;;;;;2.55;0.70;;;;;;;;;;5090995;28;20040;-73
2022/09/23 04:28:50;;;;;;;2.28;0.60;;;;;;;;;;5090568;28;20484;-73
2022/09/23 04:31:54;;;;;;;3.72;0.75;;;;;;;;;;5089902;28;20228;-73
2022/09/23 04:34:58;;;;;;;4.70;1.00;;;;;;;;;;5089902;28;20040;-73
2022/09/23 04:38:03;;;;;;;1.13;0.60;;;;;;;;;;5066992;28;20397;-73
2022/09/23 04:41:10;;;;;;;1.08;0.80;;;;;;;;;;5090508;28;20048;-71
2022/09/23 04:44:15;;;;;;;3.10;0.80;;;;;;;;;;5092134;28;20044;-72
2022/09/23 04:47:19;;;;;;;2.95;0.70;;;;;;;;;;5094613;28;20040;-72
2022/09/23 04:50:24;;;;;;;1.27;0.88;;;;;;;;;;5094572;28;20036;-73
2022/09/23 04:53:29;;;;;;;2.15;0.88;;;;;;;;;;5094014;28;20032;-73
2022/09/23 04:56:33;;;;;;;5.85;0.80;;;;;;;;;;5094535;28;20040;-73
2022/09/23 04:59:38;;;;;;;7.32;1.15;;;;;;;;;;5094280;28;20040;-73
2022/09/23 05:02:43;;;;;;;5.07;0.70;;;;;;;;;;5094066;28;20032;-72
2022/09/23 05:05:48;;;;;;;1.80;0.70;;;;;;;;;;5094311;28;20036;-72
2022/09/23 05:08:53;;;;;;;1.27;0.73;;;;;;;;;;5093952;28;20052;-72
2022/09/23 05:11:58;;;;;;;3.90;0.70;;;;;;;;;;5093442;28;20036;-73
2022/09/23 05:15:02;;;;;;;2.70;0.60;;;;;;;;;;5092927;28;20032;-72
2022/09/23 05:18:06;;;;;;;2.17;0.70;;;;;;;;;;5093832;28;20487;-72
2022/09/23 05:21:12;;;;;;;2.78;0.93;;;;;;;;;;5093743;28;20484;-72
2022/09/23 05:24:16;;;;;;;5.13;1.05;;;;;;;;;;5093475;28;20028;-72
2022/09/23 05:27:20;;;;;;;6.72;0.77;;;;;;;;;;5092264;28;20052;-72
2022/09/23 05:30:25;;;;;;;3.30;0.77;;;;;;;;;;5093464;28;20377;-73
2022/09/23 05:33:30;;;;;;;3.92;0.90;;;;;;;;;;5093535;28;20032;-72
2022/09/23 05:36:35;;;;;;;1.58;0.63;;;;;;;;;;5092549;28;20032;-74
2022/09/23 05:39:39;;;;;;;2.88;0.60;;;;;;;;;;5092437;28;20040;-74
2022/09/23 05:42:44;;;;;;;2.15;0.60;;;;;;;;;;5093774;28;20032;-74
2022/09/23 05:45:48;;;;;;;2.65;0.70;;;;;;;;;;5093054;28;20036;-75
2022/09/23 05:48:53;;;;;;;1.85;0.60;;;;;;;;;;5092166;28;20044;-74
2022/09/23 05:51:58;;;;;;;0.80;0.60;;;;;;;;;;5092323;28;20028;-76
2022/09/23 05:55:02;;;;;;;4.15;0.60;;;;;;;;;;5092191;28;20036;-76
2022/09/23 05:58:07;;;;;;;1.00;0.90;;;;;;;;;;5092445;28;20048;-73
2022/09/23 06:01:12;;;;;;;2.22;1.00;;;;;;;;;;5092982;28;20480;-72
2022/09/23 06:04:17;;;;;;;2.42;0.80;;;;;;;;;;5092864;28;20032;-73
2022/09/23 06:07:21;;;;;;;4.55;0.80;;;;;;;;;;5093099;28;20048;-72
2022/09/23 06:10:26;;;;;;;5.65;1.10;;;;;;;;;;5092797;28;20036;-71
2022/09/23 06:13:30;;;;;;;3.97;0.90;;;;;;;;;;5092616;28;20040;-71
2022/09/23 06:16:35;;;;;;;4.50;1.00;;;;;;;;;;5092761;28;20183;-71
2022/09/23 06:19:39;;;;;;;4.28;0.80;;;;;;;;;;5092825;28;20036;-73
2022/09/23 06:22:43;;;;;;;2.95;0.70;;;;;;;;;;5092580;28;20036;-72
2022/09/23 06:25:48;;;;;;;1.88;1.20;;;;;;;;;;5092676;28;20040;-67
2022/09/23 06:28:52;;;;;;;5.22;1.10;;;;;;;;;;5092098;28;20044;-67
2022/09/23 06:31:58;;;;;;;3.53;0.80;;;;;;;;;;5092550;28;20032;-68
2022/09/23 06:35:02;;;;;;;3.95;0.80;;;;;;;;;;5092315;28;20389;-66
2022/09/23 06:38:07;;;;;;;5.07;1.00;;;;;;;;;;5092169;28;20032;-68
2022/09/23 06:41:11;;;;;;;3.13;0.70;;;;;;;;;;5092151;28;20040;-71
2022/09/23 06:44:16;;;;;;;5.03;1.00;;;;;;;;;;5091236;28;20227;-72
2022/09/23 06:47:20;;;;;;;7.07;0.98;;;;;;;;;;5092731;28;20040;-70
2022/09/23 06:50:25;;;;;;;8.20;1.05;;;;;;;;;;5091238;28;20519;-70
2022/09/23 06:53:33;;;;;;;5.38;1.20;;;;;;;;;;5091035;28;20032;-68
2022/09/23 06:56:38;;;;;;;3.47;0.65;;;;;;;;;;5091351;28;20036;-75
2022/09/23 06:59:42;;;;;;;4.13;1.13;;;;;;;;;;5092137;28;20040;-73
2022/09/23 07:02:47;;;;;;;1508.55;154.57;;;;;;;;;;5091392;28;20036;-73
2022/09/23 07:05:55;;;;;;;3.40;0.82;;;;;;;;;;5090984;28;20039;-74
2022/09/23 07:08:59;;;;;;;1.42;0.90;;;;;;;;;;5091614;28;20044;-72
2022/09/23 07:12:03;;;;;;;3.35;0.82;;;;;;;;;;5091502;28;20036;-70
2022/09/23 07:15:08;;;;;;;2.78;1.30;;;;;;;;;;5091892;28;20044;-74
2022/09/23 07:18:12;;;;;;;3.10;1.30;;;;;;;;;;5091673;28;20035;-74
2022/09/23 07:21:17;;;;;;;4.57;0.93;;;;;;;;;;5091447;28;20036;-75
2022/09/23 07:24:22;;;;;;;10.07;1.10;;;;;;;;;;5091760;28;20040;-71
2022/09/23 07:27:27;;;;;;;3.20;1.13;;;;;;;;;;5091227;28;20063;-72
2022/09/23 07:30:32;;;;;;;3.60;1.30;;;;;;;;;;5091683;28;20044;-70
2022/09/23 07:33:36;;;;;;;2.10;1.08;;;;;;;;;;5091250;28;20036;-73
2022/09/23 07:36:40;;;;;;;7.85;1.05;;;;;;;;;;5091352;28;20070;-74
2022/09/23 07:39:45;;;;;;;5.32;1.50;;;;;;;;;;5091092;28;20601;-74
2022/09/23 07:42:49;;;;;;;4.88;1.40;;;;;;;;;;5091428;28;20028;-74
2022/09/23 07:45:54;;;;;;;2.80;0.98;;;;;;;;;;5091326;28;20473;-73
2022/09/23 07:48:58;;;;;;;4.70;1.58;;;;;;;;;;5090945;28;20044;-69
2022/09/23 07:52:03;;;;;;;5.30;1.00;;;;;;;;;;5089987;28;20397;-71
2022/09/23 07:55:08;;;;;;;3.75;0.90;;;;;;;;;;5091491;28;20044;-72
2022/09/23 07:58:12;;;;;;;2.42;1.40;;;;;;;;;;5091447;28;20035;-73
2022/09/23 08:01:16;;;;;;;3.22;1.05;;;;;;;;;;5090042;28;20036;-73
2022/09/23 08:04:23;;;;;;;3.42;1.02;;;;;;;;;;5091252;28;20046;-73
2022/09/23 08:07:27;;;;;;;8.00;1.25;;;;;;;;;;5091062;28;20036;-78
2022/09/23 08:10:32;;;;;;;6.25;1.75;;;;;;;;;;5090487;28;20508;-73
2022/09/23 08:13:36;;;;;;;2.35;0.88;;;;;;;;;;5091065;28;20032;-73
2022/09/23 08:16:42;;;;;;;3.67;1.30;;;;;;;;;;5091099;28;20036;-75
2022/09/23 08:19:47;;;;;;;5.15;1.27;;;;;;;;;;5093964;28;20040;-70
2022/09/23 08:22:52;;;;;;;2.20;1.10;;;;;;;;;;5094959;28;20032;-69
2022/09/23 08:25:59;;;;;;;6.45;1.45;;;;;;;;;;5094858;28;20040;-71
2022/09/23 08:29:04;;;;;;;5.82;1.45;;;;;;;;;;5094664;28;20044;-70
2022/09/23 08:32:09;;;;;;;5.80;1.52;;;;;;;;;;5093803;28;20369;-70
2022/09/23 08:35:13;;;;;;;5.15;1.58;;;;;;;;;;5094852;28;20036;-76
2022/09/23 08:38:18;;;;;;;2.25;1.20;;;;;;;;;;5094413;28;20036;-75
2022/09/23 08:41:26;;;;;;;5.05;1.55;;;;;;;;;;5093683;28;20036;-76
2022/09/23 08:44:36;;;;;;;3.05;1.25;;;;;;;;;;5094477;28;20035;-75
2022/09/23 08:47:44;;;;;;;6.70;1.60;;;;;;;;;;5093858;28;20452;-74
2022/09/23 08:50:52;;;;;;;3.17;1.30;;;;;;;;;;5094086;28;20032;-77
2022/09/23 08:53:57;;;;;;;3.83;1.40;;;;;;;;;;5093548;28;20040;-77
2022/09/23 08:57:02;;;;;;;4.47;1.38;;;;;;;;;;5094182;28;20040;-74
2022/09/23 09:00:06;;;;;;;4.03;1.55;;;;;;;;;;5094065;28;20036;-75
2022/09/23 09:03:19;;;;;;;3.05;1.30;;;;;;;;;;5093603;28;20036;-76
2022/09/23 09:06:39;;;;;;;5.78;1.45;;;;;;;;;;5094075;28;20040;-74
2022/09/23 09:10:12;;;;;;;4.55;1.50;;;;;;;;;;5093687;28;20048;-74
2022/09/23 09:13:29;;;;;;;4.03;1.80;;;;;;;;;;5096406;28;20044;-75
2022/09/23 09:16:41;;;;;;;8.65;1.67;;;;;;;;;;5093815;28;20040;-75
2022/09/23 09:19:51;;;;;;;7.15;1.67;;;;;;;;;;5093814;28;20035;-75
2022/09/23 09:22:59;;;;;;;7.13;1.27;;;;;;;;;;5093106;28;20028;-76
2022/09/23 09:26:03;;;;;;;3.03;1.02;;;;;;;;;;5094091;28;20127;-76
2022/09/23 09:29:13;;;;;;;3.83;1.45;;;;;;;;;;5093453;28;20048;-76
2022/09/23 09:32:39;;;;;;;2.45;1.05;;;;;;;;;;5093793;28;20036;-75
2022/09/23 09:35:49;;;;;;;2.60;1.42;;;;;;;;;;5092437;28;20052;-74
2022/09/23 09:38:53;;;;;;;3.67;1.42;;;;;;;;;;5093140;28;20040;-75
2022/09/23 09:41:58;;;;;;;7.18;1.65;;;;;;;;;;5093662;28;20032;-75
2022/09/23 09:45:06;;;;;;;2.47;1.35;;;;;;;;;;5093159;28;20028;-74
2022/09/23 09:48:19;;;;;;;7.80;1.80;;;;;;;;;;5092625;28;20039;-70
2022/09/23 09:51:24;;;;;;;6.70;1.77;;;;;;;;;;5094020;28;20040;-69
2022/09/23 09:54:30;;;;;;;5.75;1.90;;;;;;;;;;5093312;28;20036;-67
2022/09/23 09:57:39;;;;;;;11.65;1.80;;;;;;;;;;5093330;28;20040;-67
2022/09/23 10:00:44;;;;;;;3.75;1.75;;;;;;;;;;5093269;28;20047;-67
2022/09/23 10:03:49;;;;;;;6.25;2.15;;;;;;;;;;5093506;28;20032;-68
2022/09/23 10:07:04;;;;;;;2.58;1.40;;;;;;;;;;5093575;28;20039;-68
2022/09/23 10:10:20;;;;;;;3.75;1.60;;;;;;;;;;5093358;28;20040;-68
2022/09/23 10:13:26;;;;;;;6.45;1.40;;;;;;;;;;5092983;28;20052;-67
2022/09/23 10:16:31;;;;;;;3.15;1.83;;;;;;;;;;5093864;28;20044;-68
2022/09/23 10:19:37;;;;;;;10.60;1.73;;;;;;;;;;5093024;28;20036;-69
2022/09/23 10:22:42;;;;;;;9.60;1.90;;;;;;;;;;5093155;28;20059;-66
2022/09/23 10:25:57;;;;;;;3.70;2.05;;;;;;;;;;5092672;28;20487;-69
2022/09/23 10:29:02;;;;;;;2.65;1.50;;;;;;;;;;5092332;28;20043;-67
2022/09/23 10:32:19;;;;;;;2.05;1.38;;;;;;;;;;5092330;28;20024;-67
2022/09/23 10:35:25;;;;;;;2.88;1.52;;;;;;;;;;5092244;28;20044;-68
2022/09/23 10:38:29;;;;;;;2.75;1.50;;;;;;;;;;5092516;28;20032;-68
2022/09/23 10:48:53;;;;;;;2.28;1.17;;;;;;;;;;5091171;28;20051;-71
2022/09/23 10:52:13;;;;;;;3.47;1.35;;;;;;;;;;5091886;28;20031;-71
2022/09/23 10:55:21;;;;;;;4.95;1.50;;;;;;;;;;5092075;28;20040;-72
2022/09/23 10:58:28;;;;;;;3.67;1.50;;;;;;;;;;5091909;28;20028;-71
2022/09/23 11:01:36;;;;;;;3.95;1.50;;;;;;;;;;5092199;28;20040;-71
2022/09/23 11:04:46;;;;;;;5.38;1.50;;;;;;;;;;5091150;28;20373;-71
2022/09/23 11:08:01;;;;;;;4.22;1.60;;;;;;;;;;5090923;28;20028;-72
2022/09/23 11:11:24;;;;;;;6.95;1.58;;;;;;;;;;5091665;28;20044;-72
2022/09/23 11:14:40;;;;;;;9.80;1.92;;;;;;;;;;5091595;28;20040;-71
2022/09/23 11:18:03;;;;;;;2.17;1.58;;;;;;;;;;5091804;28;20032;-70
2022/09/23 11:21:27;;;;;;;2.33;1.45;;;;;;;;;;5090793;28;20460;-71
2022/09/23 11:24:47;;;;;;;4.47;2.00;;;;;;;;;;5091458;28;20040;-70
2022/09/23 11:27:56;;;;;;;4.23;1.83;;;;;;;;;;5090965;28;20488;-69
2022/09/23 11:31:20;;;;;;;2.65;1.50;;;;;;;;;;5091330;28;20040;-70
2022/09/23 11:34:27;;;;;;;9.55;2.10;;;;;;;;;;5091383;28;20040;-71
2022/09/23 11:37:35;;;;;;;7.18;1.98;;;;;;;;;;5091024;28;20044;-70
2022/09/23 11:40:40;;;;;;;7.03;2.05;;;;;;;;;;5090300;28;20036;-69
2022/09/23 11:43:50;;;;;;;2.15;1.23;;;;;;;;;;5091424;28;20036;-72
2022/09/23 11:47:00;;;;;;;2.97;1.40;;;;;;;;;;5090347;28;20032;-71
2022/09/23 11:50:11;;;;;;;3.25;1.45;;;;;;;;;;5090844;28;20223;-70
2022/09/23 11:53:22;;;;;;;2.17;1.10;;;;;;;;;;5091018;28;20357;-74
2022/09/23 11:56:30;;;;;;;4.82;2.20;;;;;;;;;;5078842;28;20036;-71
2022/09/23 11:59:36;;;;;;;2.00;1.25;;;;;;;;;;5091526;28;20044;-72
2022/09/23 12:02:40;;;;;;;1.90;1.40;;;;;;;;;;5090895;28;20487;-70
2022/09/23 12:05:46;;;;;;;2.95;1.40;;;;;;;;;;5091129;28;20401;-71
2022/09/23 12:08:53;;;;;;;2.97;1.17;;;;;;;;;;5090808;28;20052;-72
2022/09/23 12:12:08;;;;;;;2.65;1.13;;;;;;;;;;5090803;28;20472;-69
2022/09/23 12:15:22;;;;;;;2.72;1.50;;;;;;;;;;5091067;28;20040;-67
2022/09/23 12:18:26;;;;;;;7.63;1.55;;;;;;;;;;5090869;28;20040;-66
2022/09/23 12:21:30;;;;;;;4.32;1.52;;;;;;;;;;5090658;28;20373;-68
2022/09/23 12:24:54;;;;;;;5.50;1.20;;;;;;;;;;5090009;28;20028;-69
2022/09/23 12:28:10;;;;;;;3.92;1.35;;;;;;;;;;5090266;28;20052;-70
2022/09/23 12:31:15;;;;;;;5.07;1.00;;;;;;;;;;5091175;28;20044;-68
2022/09/23 12:34:27;;;;;;;3.75;1.17;;;;;;;;;;5090852;28;20032;-67
2022/09/23 12:37:33;;;;;;;2.42;1.08;;;;;;;;;;5090714;28;20373;-66
2022/09/23 12:40:43;;;;;;;1.73;1.00;;;;;;;;;;5090448;28;20036;-66
2022/09/23 12:43:54;;;;;;;3.97;1.00;;;;;;;;;;5090883;28;20028;-66
2022/09/23 12:47:20;;;;;;;3.15;0.95;;;;;;;;;;5090769;28;20036;-68
2022/09/23 12:50:43;;;;;;;3.50;1.20;;;;;;;;;;5090233;28;20040;-68
2022/09/23 12:53:49;;;;;;;2.63;1.27;;;;;;;;;;5090901;28;20040;-69
2022/09/23 12:56:53;;;;;;;2.75;1.15;;;;;;;;;;5090565;28;20036;-67
2022/09/23 12:59:59;;;;;;;5.70;1.17;;;;;;;;;;5089565;28;20036;-69
2022/09/23 13:06:39;;;;;;;4.32;1.42;;;;;;;;;;5093883;28;20039;-68
2022/09/23 13:09:51;;;;;;;4.70;1.30;;;;;;;;;;5094057;28;20051;-71
2022/09/23 13:12:57;;;;;;;5.07;1.20;;;;;;;;;;5094185;28;20040;-68
2022/09/23 13:16:10;;;;;;;6.22;1.20;;;;;;;;;;5093924;28;20044;-67
2022/09/23 13:19:27;;;;;;;2.90;1.30;;;;;;;;;;5093507;28;20036;-66
2022/09/23 13:22:52;;;;;;;4.88;1.55;;;;;;;;;;5093859;28;20460;-69
2022/09/23 13:26:01;;;;;;;4.20;1.40;;;;;;;;;;5094029;28;20475;-71
2022/09/23 13:29:06;;;;;;;5.50;1.25;;;;;;;;;;5092591;28;20511;-69
2022/09/23 13:32:18;;;;;;;3.95;1.30;;;;;;;;;;5093514;28;20036;-69
2022/09/23 13:35:26;;;;;;;5.40;1.23;;;;;;;;;;5093596;28;20484;-69
2022/09/23 13:38:32;;;;;;;3.13;1.00;;;;;;;;;;5093823;28;20471;-69
2022/09/23 13:41:37;;;;;;;2.47;1.40;;;;;;;;;;5093423;28;20028;-69
2022/09/23 13:44:41;;;;;;;2.40;1.23;;;;;;;;;;5093765;28;20036;-68
2022/09/23 13:47:46;;;;;;;2.47;1.08;;;;;;;;;;5093513;28;20048;-69
2022/09/23 13:50:54;;;;;;;4.28;1.73;;;;;;;;;;5093292;28;20498;-69
2022/09/23 13:54:00;;;;;;;2.85;1.20;;;;;;;;;;5093577;28;20361;-68
2022/09/23 13:57:04;;;;;;;2.55;1.60;;;;;;;;;;5093383;28;20479;-69
2022/09/23 14:00:20;;;;;;;3.10;1.88;;;;;;;;;;5093015;28;20396;-69
2022/09/23 14:03:31;;;;;;;2.42;1.40;;;;;;;;;;5093248;28;20484;-69
2022/09/23 14:06:38;;;;;;;2.42;1.48;;;;;;;;;;5092149;28;20032;-70
2022/09/23 14:09:44;;;;;;;3.35;1.30;;;;;;;;;;5092923;28;20044;-69
2022/09/23 14:12:49;;;;;;;3.28;1.63;;;;;;;;;;5093020;28;20040;-68
2022/09/23 14:15:56;;;;;;;3.25;1.20;;;;;;;;;;5092286;28;20476;-70
2022/09/23 14:19:01;;;;;;;3.05;1.38;;;;;;;;;;5092120;28;20040;-71
2022/09/23 14:22:07;;;;;;;3.65;1.55;;;;;;;;;;5092080;28;20488;-67
2022/09/23 14:25:13;;;;;;;2.58;1.60;;;;;;;;;;5092450;28;20035;-69
2022/09/23 14:28:19;;;;;;;5.25;1.35;;;;;;;;;;5092290;28;20384;-68
2022/09/23 14:31:24;;;;;;;2.30;1.70;;;;;;;;;;5092364;28;20032;-69
2022/09/23 14:34:41;;;;;;;3.72;1.52;;;;;;;;;;5092460;28;20044;-68
2022/09/23 14:41:20;;;;;;;2.45;1.40;;;;;;;;;;5092358;28;20040;-68
2022/09/23 14:44:26;;;;;;;6.47;1.27;;;;;;;;;;5092626;28;20040;-67
2022/09/23 14:47:32;;;;;;;2.63;1.40;;;;;;;;;;5092068;28;20032;-69
2022/09/23 14:50:45;;;;;;;6.93;1.50;;;;;;;;;;5092273;28;20056;-68
2022/09/23 14:53:49;;;;;;;2.58;1.40;;;;;;;;;;5092164;28;20028;-69
2022/09/23 14:56:54;;;;;;;3.15;1.30;;;;;;;;;;5092317;28;20044;-71
2022/09/23 15:00:01;;;;;;;9.55;1.73;;;;;;;;;;5091750;28;20036;-70
2022/09/23 15:03:13;;;;;;;2.40;1.70;;;;;;;;;;5091990;28;20576;-67
2022/09/23 15:06:19;;;;;;;6.07;1.70;;;;;;;;;;5091643;28;20368;-68
2022/09/23 15:09:35;;;;;;;8.68;1.60;;;;;;;;;;5091707;28;20583;-69
2022/09/23 15:12:40;;;;;;;4.30;1.45;;;;;;;;;;5092034;28;20036;-67
2022/09/23 15:15:44;;;;;;;4.82;1.63;;;;;;;;;;5091890;28;20044;-68
2022/09/23 15:18:53;;;;;;;5.43;1.73;;;;;;;;;;5091299;28;20044;-69
2022/09/23 15:21:57;;;;;;;3.15;1.60;;;;;;;;;;5091988;28;20036;-67
2022/09/23 15:25:28;;;;;;;6.32;1.92;;;;;;;;;;5091351;28;20032;-67
2022/09/23 15:28:33;;;;;;;2.88;1.67;;;;;;;;;;5091048;28;20051;-68
2022/09/23 15:31:37;;;;;;;9.40;2.03;;;;;;;;;;5090927;28;20044;-68
2022/09/23 15:34:42;;;;;;;4.45;1.70;;;;;;;;;;5091088;28;20043;-68
2022/09/23 15:37:48;;;;;;;3.50;1.48;;;;;;;;;;5091543;28;20044;-69
2022/09/23 15:40:53;;;;;;;2.05;1.33;;;;;;;;;;5090758;28;20040;-66
2022/09/23 15:43:57;;;;;;;2.75;1.70;;;;;;;;;;5091313;28;20043;-66
2022/09/23 15:47:01;;;;;;;6.30;1.90;;;;;;;;;;5091414;28;20036;-66
2022/09/23 15:50:06;;;;;;;4.45;1.50;;;;;;;;;;5090719;28;20055;-69
2022/09/23 15:53:16;;;;;;;6.57;1.63;;;;;;;;;;5091487;28;20040;-69
2022/09/23 15:56:21;;;;;;;4.13;1.77;;;;;;;;;;5090603;28;20048;-67
2022/09/23 15:59:25;;;;;;;2.67;1.35;;;;;;;;;;5091260;28;20032;-66
2022/09/23 16:02:31;;;;;;;3.83;1.63;;;;;;;;;;5091051;28;20036;-68
2022/09/23 16:05:37;;;;;;;5.45;2.08;;;;;;;;;;5091312;28;20044;-69
2022/09/23 16:08:42;;;;;;;9.68;2.22;;;;;;;;;;5090495;28;20039;-67
2022/09/23 16:11:48;;;;;;;6.80;2.90;;;;;;;;;;5090904;28;20044;-67
2022/09/23 16:14:52;;;;;;;8.65;3.05;;;;;;;;;;5091040;28;20369;-68
2022/09/23 16:17:57;;;;;;;5.38;2.30;;;;;;;;;;5090725;28;20040;-68
2022/09/23 16:21:03;;;;;;;3.47;1.83;;;;;;;;;;5090324;28;20040;-67
2022/09/23 16:24:15;;;;;;;6.78;1.83;;;;;;;;;;5090210;28;20028;-66
2022/09/23 16:27:19;;;;;;;9.10;2.50;;;;;;;;;;5090300;28;20044;-68
2022/09/23 16:30:27;;;;;;;13.35;2.60;;;;;;;;;;5090208;28;20039;-66
2022/09/23 16:33:32;;;;;;;6.72;2.05;;;;;;;;;;5090640;28;20067;-64
2022/09/23 16:36:41;;;;;;;4.03;2.33;;;;;;;;;;5090686;28;20040;-67
2022/09/23 16:39:48;;;;;;;11.10;3.05;;;;;;;;;;5091326;28;20032;-68
2022/09/23 16:42:54;;;;;;;20.02;3.55;;;;;;;;;;5094683;28;20054;-66
2022/09/23 16:45:58;;;;;;;6.80;1.80;;;;;;;;;;5094488;28;20043;-67
2022/09/23 16:49:03;;;;;;;6.93;2.78;;;;;;;;;;5094067;28;20044;-66
2022/09/23 16:52:07;;;;;;;6.53;2.30;;;;;;;;;;5094058;28;20044;-67
2022/09/23 16:55:13;;;;;;;4.78;1.88;;;;;;;;;;5093820;28;20040;-66
2022/09/23 16:58:17;;;;;;;13.80;4.07;;;;;;;;;;5094454;28;20040;-66
2022/09/23 17:04:48;;;;;;;4.53;2.33;;;;;;;;;;5093426;28;20036;-68
2022/09/23 17:07:53;;;;;;;9.20;2.55;;;;;;;;;;5093876;28;20480;-66
2022/09/23 17:10:58;;;;;;;7.05;2.58;;;;;;;;;;5093778;28;20048;-65
2022/09/23 17:14:03;;;;;;;10.13;2.80;;;;;;;;;;5093090;28;20032;-72
2022/09/23 17:17:08;;;;;;;9.00;3.45;;;;;;;;;;5080623;28;20542;-72
2022/09/23 17:20:13;;;;;;;13.40;3.42;;;;;;;;;;5091963;28;20362;-71
2022/09/23 17:23:17;;;;;;;11.63;3.05;;;;;;;;;;5092243;28;20181;-72
2022/09/23 17:26:22;;;;;;;13.35;3.35;;;;;;;;;;5093362;28;20043;-73
2022/09/23 17:29:27;;;;;;;16.67;10.27;;;;;;;;;;5093398;28;20062;-73
2022/09/23 17:32:32;;;;;;;9.82;3.83;;;;;;;;;;5093490;28;20245;-73
2022/09/23 17:35:38;;;;;;;14.23;3.70;;;;;;;;;;5092705;28;20040;-72
2022/09/23 17:38:43;;;;;;;8.32;3.33;;;;;;;;;;5091646;28;20507;-72
2022/09/23 17:41:48;;;;;;;13.02;6.20;;;;;;;;;;5093265;28;20380;-73
2022/09/23 17:44:55;;;;;;;11.30;2.85;;;;;;;;;;5092323;28;20061;-72
2022/09/23 17:47:59;;;;;;;13.13;3.85;;;;;;;;;;5092882;28;20046;-72
2022/09/23 17:51:05;;;;;;;5.88;3.10;;;;;;;;;;5092720;28;20423;-73
2022/09/23 17:54:10;;;;;;;8.85;3.08;;;;;;;;;;5093015;28;20036;-73
2022/09/23 17:57:15;;;;;;;10.27;2.72;;;;;;;;;;5092681;28;20032;-72
2022/09/23 18:00:19;;;;;;;9.52;2.53;;;;;;;;;;5092210;28;20481;-72
2022/09/23 18:03:24;;;;;;;8.43;2.80;;;;;;;;;;5091178;28;20044;-72
2022/09/23 18:06:30;;;;;;;14.75;4.03;;;;;;;;;;5092306;28;20028;-72
2022/09/23 18:09:34;;;;;;;15.18;3.72;;;;;;;;;;5091914;28;20450;-72
2022/09/23 18:12:38;;;;;;;15.93;4.07;;;;;;;;;;5091109;28;20625;-72
2022/09/23 18:15:42;;;;;;;19.58;4.13;;;;;;;;;;5092340;28;20047;-72
2022/09/23 18:18:50;;;;;;;23.98;7.82;;;;;;;;;;5090576;28;20039;-72
2022/09/23 18:21:56;;;;;;;20.77;8.30;;;;;;;;;;5092221;28;20039;-74
2022/09/23 18:25:00;;;;;;;18.60;5.72;;;;;;;;;;5091634;28;20039;-73
2022/09/23 18:28:07;;;;;;;13.82;4.85;;;;;;;;;;5091703;28;20050;-73
2022/09/23 18:31:12;;;;;;;12.13;4.00;;;;;;;;;;5092152;28;20537;-73
2022/09/23 18:34:16;;;;;;;11.40;3.83;;;;;;;;;;5091970;28;20047;-73
2022/09/23 18:37:21;;;;;;;12.55;3.45;;;;;;;;;;5092068;28;20236;-73
2022/09/23 18:40:25;;;;;;;12.63;3.90;;;;;;;;;;5091795;28;20209;-73
2022/09/23 18:43:31;;;;;;;17.60;3.47;;;;;;;;;;5092225;28;20118;-73
2022/09/23 18:46:35;;;;;;;17.63;3.42;;;;;;;;;;5092041;28;20043;-73
2022/09/23 18:53:02;;;;;;;11.70;4.53;;;;;;;;;;5091796;28;20495;-74
2022/09/23 18:56:07;;;;;;;47.60;18.50;;;;;;;;;;5091071;28;20051;-74
2022/09/23 18:59:13;;;;;;;38.22;15.13;;;;;;;;;;5091709;28;20050;-72
2022/09/23 19:02:17;;;;;;;37.28;13.00;;;;;;;;;;5090817;28;20499;-74
2022/09/23 19:05:21;;;;;;;26.92;9.18;;;;;;;;;;5091605;28;20054;-73